createdAt,value
2019-02-08T00:01:31.222Z,30.70
2019-02-08T00:04:01.099Z,29.80
2019-02-08T00:06:30.705Z,30.93
2019-02-08T00:09:00.275Z,29.40
2019-02-08T00:11:29.867Z,33.33
2019-02-08T00:13:59.653Z,29.87
2019-02-08T00:16:29.391Z,29.13
2019-02-08T00:18:58.996Z,30.93
2019-02-08T00:21:28.577Z,30.37
2019-02-08T00:23:58.286Z,28.17
2019-02-08T00:26:27.868Z,28.07
2019-02-08T00:28:57.483Z,28.03
2019-02-08T00:31:27.426Z,29.87
2019-02-08T00:33:56.917Z,32.47
2019-02-08T00:36:26.540Z,34.27
2019-02-08T00:38:56.076Z,31.50
2019-02-08T00:41:25.707Z,28.70
2019-02-08T00:43:55.223Z,30.13
2019-02-08T00:46:24.922Z,31.80
2019-02-08T00:48:54.448Z,30.60
2019-02-08T00:51:24.033Z,33.33
2019-02-08T00:53:53.580Z,33.50
2019-02-08T00:56:23.191Z,30.80
2019-02-08T00:58:52.802Z,31.60
2019-02-08T01:01:22.454Z,29.87
2019-02-08T01:03:52.131Z,31.60
2019-02-08T01:06:21.712Z,37.13
2019-02-08T01:08:51.332Z,35.97
2019-02-08T01:11:21.029Z,32.30
2019-02-08T01:13:50.642Z,33.80
2019-02-08T01:16:20.222Z,29.90
2019-02-08T01:18:50.034Z,32.47
2019-02-08T01:21:19.658Z,32.10
2019-02-08T01:23:49.259Z,32.20
2019-02-08T01:26:18.844Z,34.00
2019-02-08T01:28:48.400Z,31.80
2019-02-08T01:31:18.009Z,30.87
2019-02-08T01:33:47.542Z,29.97
2019-02-08T01:36:17.125Z,30.40
2019-02-08T01:38:46.808Z,29.13
2019-02-08T01:41:16.400Z,29.07
2019-02-08T01:43:46.017Z,27.67
2019-02-08T01:46:15.604Z,26.07
2019-02-08T01:48:45.146Z,24.43
2019-02-08T01:51:14.716Z,25.90
2019-02-08T01:53:48.663Z,25.90
2019-02-08T01:56:15.631Z,25.57
2019-02-08T01:58:45.160Z,26.63
2019-02-08T02:01:14.807Z,25.77
2019-02-08T02:03:44.313Z,27.43
2019-02-08T02:06:13.890Z,26.77
2019-02-08T02:08:43.494Z,24.73
2019-02-08T02:11:13.005Z,25.70
2019-02-08T02:13:42.614Z,24.77
2019-02-08T02:16:12.216Z,23.47
2019-02-08T02:18:41.814Z,24.90
2019-02-08T02:21:11.423Z,24.10
2019-02-08T02:23:41.079Z,24.77
2019-02-08T02:26:10.673Z,23.17
2019-02-08T02:28:40.280Z,24.77
2019-02-08T02:31:09.864Z,23.03
2019-02-08T02:33:39.442Z,25.40
2019-02-08T02:36:09.354Z,24.33
2019-02-08T02:38:39.042Z,23.13
2019-02-08T02:41:08.643Z,23.10
2019-02-08T02:43:38.248Z,22.83
2019-02-08T02:46:07.842Z,24.10
2019-02-08T02:48:37.362Z,23.73
2019-02-08T02:51:07.473Z,20.87
2019-02-08T02:53:37.147Z,24.33
2019-02-08T02:56:06.816Z,25.83
2019-02-08T02:58:36.414Z,24.57
2019-02-08T03:01:06.012Z,24.27
2019-02-08T03:03:35.620Z,23.30
2019-02-08T03:06:05.489Z,23.50
2019-02-08T03:08:35.057Z,23.37
2019-02-08T03:11:04.736Z,23.93
2019-02-08T03:13:34.315Z,27.50
2019-02-08T03:16:03.999Z,25.13
2019-02-08T03:18:33.589Z,34.10
2019-02-08T03:21:03.188Z,35.50
2019-02-08T03:23:32.782Z,30.43
2019-02-08T03:26:02.477Z,25.10
2019-02-08T03:28:32.075Z,25.43
2019-02-08T03:31:01.941Z,28.70
2019-02-08T03:33:31.547Z,26.03
2019-02-08T03:36:01.161Z,24.93
2019-02-08T03:38:30.773Z,24.50
2019-02-08T03:41:00.453Z,23.00
2019-02-08T03:43:30.044Z,22.70
2019-02-08T03:45:59.634Z,22.83
2019-02-08T03:48:29.218Z,22.60
2019-02-08T03:50:58.903Z,21.93
2019-02-08T03:53:28.456Z,23.03
2019-02-08T03:55:58.978Z,22.70
2019-02-08T03:58:28.663Z,21.43
2019-02-08T04:01:06.095Z,21.07
2019-02-08T04:03:35.775Z,21.00
2019-02-08T04:06:05.774Z,20.37
2019-02-08T04:08:35.343Z,21.93
2019-02-08T04:11:05.119Z,21.17
2019-02-08T04:13:34.804Z,19.10
2019-02-08T04:16:04.949Z,19.70
2019-02-08T04:18:34.569Z,19.30
2019-02-08T04:21:04.238Z,19.43
2019-02-08T04:23:33.835Z,21.63
2019-02-08T04:26:03.435Z,21.47
2019-02-08T04:28:33.039Z,21.40
2019-02-08T04:31:02.641Z,21.00
2019-02-08T04:33:32.245Z,21.13
2019-02-08T04:36:01.937Z,22.83
2019-02-08T04:38:31.525Z,20.53
2019-02-08T04:41:01.046Z,22.07
2019-02-08T04:43:30.663Z,23.27
2019-02-08T04:46:00.276Z,24.07
2019-02-08T04:48:29.921Z,24.23
2019-02-08T04:50:59.519Z,23.67
2019-02-08T04:53:29.173Z,23.67
2019-02-08T04:55:58.802Z,22.17
2019-02-08T04:58:35.468Z,21.60
2019-02-08T05:00:59.944Z,23.03
2019-02-08T05:03:29.533Z,20.27
2019-02-08T05:05:59.133Z,23.30
2019-02-08T05:08:28.735Z,24.87
2019-02-08T05:10:58.331Z,24.10
2019-02-08T05:13:27.922Z,22.83
2019-02-08T05:15:57.528Z,22.67
2019-02-08T05:18:27.180Z,22.03
2019-02-08T05:20:56.848Z,21.60
2019-02-08T05:23:26.510Z,22.90
2019-02-08T05:25:56.487Z,22.87
2019-02-08T05:28:26.071Z,22.27
2019-02-08T05:30:55.716Z,22.47
2019-02-08T05:33:25.410Z,22.77
2019-02-08T05:35:55.059Z,23.30
2019-02-08T05:38:24.704Z,23.23
2019-02-08T05:40:54.362Z,23.23
2019-02-08T05:43:23.890Z,22.97
2019-02-08T05:45:53.570Z,27.50
2019-02-08T05:48:23.176Z,26.93
2019-02-08T05:50:52.798Z,28.10
2019-02-08T05:53:22.528Z,24.33
2019-02-08T05:55:52.211Z,26.57
2019-02-08T05:58:21.785Z,25.10
2019-02-08T06:00:58.415Z,26.57
2019-02-08T06:03:28.156Z,25.50
2019-02-08T06:05:57.731Z,24.37
2019-02-08T06:08:27.410Z,23.23
2019-02-08T06:10:57.074Z,23.60
2019-02-08T06:13:26.749Z,23.07
2019-02-08T06:15:56.370Z,25.10
2019-02-08T06:18:26.125Z,25.57
2019-02-08T06:20:55.797Z,25.87
2019-02-08T06:23:25.437Z,23.20
2019-02-08T06:25:55.121Z,22.90
2019-02-08T06:28:24.695Z,22.30
2019-02-08T06:30:54.369Z,21.20
2019-02-08T06:33:24.070Z,20.60
2019-02-08T06:35:53.672Z,22.93
2019-02-08T06:38:23.230Z,23.27
2019-02-08T06:40:52.813Z,22.83
2019-02-08T06:43:22.443Z,22.57
2019-02-08T06:45:52.003Z,22.73
2019-02-08T06:48:21.672Z,21.73
2019-02-08T06:50:51.304Z,23.33
2019-02-08T06:53:20.892Z,23.10
2019-02-08T06:55:53.791Z,23.50
2019-02-08T06:58:30.275Z,22.40
2019-02-08T07:01:27.817Z,23.33
2019-02-08T07:04:17.619Z,23.63
2019-02-08T07:07:04.558Z,23.00
2019-02-08T07:09:51.968Z,22.87
2019-02-08T07:12:40.535Z,23.37
2019-02-08T07:15:34.875Z,22.93
2019-02-08T07:18:19.520Z,22.27
2019-02-08T07:21:13.463Z,22.37
2019-02-08T07:23:56.147Z,23.57
2019-02-08T07:26:43.327Z,22.77
2019-02-08T07:29:22.742Z,24.13
2019-02-08T07:32:11.362Z,22.47
2019-02-08T07:35:10.703Z,23.13
2019-02-08T07:37:54.615Z,22.13
2019-02-08T07:40:48.104Z,23.37
2019-02-08T07:43:36.029Z,21.50
2019-02-08T07:46:24.838Z,23.33
2019-02-08T07:49:31.751Z,22.93
2019-02-08T07:52:20.660Z,23.20
2019-02-08T07:55:02.707Z,23.17
2019-02-08T07:57:57.458Z,22.60
2019-02-08T08:00:40.914Z,27.13
2019-02-08T08:03:28.190Z,27.00
2019-02-08T08:06:16.942Z,25.53
2019-02-08T08:09:20.507Z,27.87
2019-02-08T08:12:06.851Z,26.57
2019-02-08T08:14:46.053Z,25.80
2019-02-08T08:17:40.608Z,24.90
2019-02-08T08:20:34.051Z,27.47
2019-02-08T08:23:22.899Z,27.53
2019-02-08T08:26:14.845Z,24.73
2019-02-08T08:29:06.651Z,26.83
2019-02-08T08:31:43.552Z,21.60
2019-02-08T08:34:24.407Z,20.47
2019-02-08T08:37:18.080Z,21.23
2019-02-08T08:40:40.603Z,19.97
2019-02-08T08:43:40.437Z,18.23
2019-02-08T08:47:00.533Z,18.97
2019-02-08T08:49:53.361Z,17.17
2019-02-08T08:52:53.277Z,16.33
2019-02-08T08:56:14.276Z,15.53
2019-02-08T08:59:07.253Z,13.00
2019-02-08T09:02:26.171Z,12.20
2019-02-08T09:05:23.572Z,11.07
2019-02-08T09:08:19.143Z,11.57
2019-02-08T09:11:22.436Z,11.07
2019-02-08T09:14:40.923Z,11.30
2019-02-08T09:17:50.704Z,11.23
2019-02-08T09:21:15.621Z,11.03
2019-02-08T09:24:01.579Z,10.37
2019-02-08T09:27:04.351Z,9.43
2019-02-08T09:30:06.552Z,10.50
2019-02-08T09:33:32.145Z,10.30
2019-02-08T09:36:36.117Z,7.10
2019-02-08T09:39:44.461Z,8.00
2019-02-08T09:42:46.820Z,8.30
2019-02-08T09:46:10.283Z,7.20
2019-02-08T09:49:39.351Z,7.13
2019-02-08T09:53:00.955Z,6.67
2019-02-08T09:56:07.519Z,6.30
2019-02-08T09:59:08.835Z,6.07
2019-02-08T10:02:28.424Z,6.37
2019-02-08T10:05:23.812Z,6.93
2019-02-08T10:08:34.824Z,6.13
2019-02-08T10:11:27.007Z,5.90
2019-02-08T10:14:31.786Z,5.63
2019-02-08T10:17:36.244Z,5.30
2019-02-08T10:20:49.970Z,4.20
2019-02-08T10:24:07.084Z,4.40
2019-02-08T10:27:27.907Z,4.90
2019-02-08T10:30:59.613Z,5.23
2019-02-08T10:34:07.655Z,5.53
2019-02-08T10:37:05.007Z,5.30
2019-02-08T10:40:10.268Z,4.77
2019-02-08T10:43:22.386Z,5.00
2019-02-08T10:46:21.860Z,4.67
2019-02-08T10:49:42.024Z,4.80
2019-02-08T10:52:57.540Z,4.83
2019-02-08T10:55:55.541Z,5.07
2019-02-08T10:59:03.699Z,4.63
2019-02-08T11:02:16.133Z,3.87
2019-02-08T11:05:21.508Z,4.93
2019-02-08T11:08:31.047Z,4.30
2019-02-08T11:11:37.279Z,3.73
2019-02-08T11:14:57.370Z,3.90
2019-02-08T11:17:52.437Z,4.07
2019-02-08T11:20:22.019Z,3.93
2019-02-08T11:22:51.624Z,3.80
2019-02-08T11:25:21.220Z,3.90
2019-02-08T11:27:50.769Z,3.87
2019-02-08T11:30:20.452Z,4.40
2019-02-08T11:32:50.126Z,4.27
2019-02-08T11:35:19.752Z,4.17
2019-02-08T11:37:49.334Z,4.10
2019-02-08T11:40:23.288Z,3.90
2019-02-08T11:42:52.921Z,3.97
2019-02-08T11:45:22.508Z,3.67
2019-02-08T11:47:52.120Z,3.90
2019-02-08T11:50:22.100Z,3.37
2019-02-08T11:52:51.652Z,3.37
2019-02-08T11:55:21.145Z,3.77
2019-02-08T11:57:50.737Z,4.00
2019-02-08T12:00:27.393Z,3.77
2019-02-08T12:02:56.978Z,3.70
2019-02-08T12:05:26.655Z,3.50
2019-02-08T12:07:56.269Z,3.50
2019-02-08T12:10:25.902Z,3.47
2019-02-08T12:12:55.465Z,3.80
2019-02-08T12:15:25.173Z,3.97
2019-02-08T12:17:54.793Z,3.67
2019-02-08T12:20:24.450Z,3.90
2019-02-08T12:22:54.030Z,3.67
2019-02-08T12:25:23.656Z,3.93
2019-02-08T12:27:53.298Z,4.30
2019-02-08T12:30:26.044Z,4.17
2019-02-08T12:32:55.634Z,4.03
2019-02-08T12:35:25.312Z,4.00
2019-02-08T12:37:54.901Z,3.90
2019-02-08T12:40:24.845Z,4.20
2019-02-08T12:42:54.393Z,3.80
2019-02-08T12:45:24.077Z,3.83
2019-02-08T12:47:53.604Z,3.60
2019-02-08T12:50:23.498Z,2.83
2019-02-08T12:52:53.101Z,2.97
2019-02-08T12:55:22.759Z,3.10
2019-02-08T12:57:52.344Z,3.40
2019-02-08T13:00:22.173Z,3.23
2019-02-08T13:02:51.822Z,3.03
2019-02-08T13:05:21.705Z,3.53
2019-02-08T13:07:51.494Z,3.27
2019-02-08T13:10:22.738Z,4.13
2019-02-08T13:12:52.710Z,4.20
2019-02-08T13:15:22.284Z,3.30
2019-02-08T13:17:51.967Z,3.70
2019-02-08T13:20:21.570Z,3.30
2019-02-08T13:22:51.190Z,3.50
2019-02-08T13:25:20.763Z,3.60
2019-02-08T13:27:50.368Z,4.57
2019-02-08T13:30:25.530Z,3.57
2019-02-08T13:32:55.188Z,3.33
2019-02-08T13:35:24.844Z,3.67
2019-02-08T13:37:54.521Z,3.73
2019-02-08T13:40:24.198Z,4.33
2019-02-08T13:42:53.819Z,4.13
2019-02-08T13:45:23.580Z,4.07
2019-02-08T13:47:53.279Z,3.93
2019-02-08T13:50:24.138Z,4.00
2019-02-08T13:52:53.771Z,4.47
2019-02-08T13:55:23.928Z,4.30
2019-02-08T13:57:53.790Z,2.97
2019-02-08T14:00:34.624Z,3.17
2019-02-08T14:03:04.418Z,2.77
2019-02-08T14:05:34.087Z,2.90
2019-02-08T14:08:03.777Z,3.37
2019-02-08T14:10:33.424Z,2.73
2019-02-08T14:13:03.362Z,3.47
2019-02-08T14:15:32.974Z,3.57
2019-02-08T14:18:02.580Z,3.17
2019-02-08T14:20:32.152Z,2.47
2019-02-08T14:23:01.785Z,3.00
2019-02-08T14:25:31.382Z,2.77
2019-02-08T14:28:00.959Z,2.57
2019-02-08T14:30:32.858Z,2.90
2019-02-08T14:33:02.447Z,3.13
2019-02-08T14:35:32.224Z,3.00
2019-02-08T14:38:02.849Z,4.23
2019-02-08T14:40:32.486Z,2.30
2019-02-08T14:43:02.171Z,3.57
2019-02-08T14:45:31.752Z,3.77
2019-02-08T14:48:01.383Z,2.60
2019-02-08T14:50:31.161Z,3.10
2019-02-08T14:53:01.017Z,3.37
2019-02-08T14:55:30.640Z,3.27
2019-02-08T14:58:00.898Z,3.30
2019-02-08T15:00:30.513Z,3.30
2019-02-08T15:03:00.081Z,3.40
2019-02-08T15:05:29.676Z,5.23
2019-02-08T15:07:59.340Z,2.60
2019-02-08T15:10:36.958Z,3.27
2019-02-08T15:13:06.634Z,3.40
2019-02-08T15:15:36.148Z,3.60
2019-02-08T15:18:06.446Z,3.60
2019-02-08T15:20:36.139Z,4.43
2019-02-08T15:23:05.832Z,4.00
2019-02-08T15:25:35.427Z,3.83
2019-02-08T15:28:05.095Z,3.83
2019-02-08T15:30:34.785Z,4.73
2019-02-08T15:33:05.087Z,6.00
2019-02-08T15:35:35.227Z,5.67
2019-02-08T15:38:05.292Z,7.77
2019-02-08T15:40:42.828Z,5.40
2019-02-08T15:43:13.235Z,3.70
2019-02-08T15:45:45.659Z,4.40
2019-02-08T15:48:15.168Z,4.57
2019-02-08T15:50:44.864Z,4.37
2019-02-08T15:53:14.412Z,3.87
2019-02-08T15:55:45.528Z,4.23
2019-02-08T15:58:15.112Z,3.70
2019-02-08T16:00:44.710Z,4.67
2019-02-08T16:03:14.379Z,4.37
2019-02-08T16:05:43.976Z,3.27
2019-02-08T16:08:13.664Z,3.33
2019-02-08T16:10:43.242Z,3.90
2019-02-08T16:13:12.816Z,5.00
2019-02-08T16:15:42.425Z,4.93
2019-02-08T16:18:12.239Z,6.53
2019-02-08T16:20:42.031Z,7.97
2019-02-08T16:23:11.548Z,8.03
2019-02-08T16:25:41.188Z,6.80
2019-02-08T16:28:10.787Z,7.37
2019-02-08T16:30:40.698Z,5.90
2019-02-08T16:33:10.363Z,5.90
2019-02-08T16:35:39.955Z,5.63
2019-02-08T16:38:10.045Z,4.27
2019-02-08T16:40:39.693Z,4.07
2019-02-08T16:43:09.291Z,4.90
2019-02-08T16:45:38.995Z,5.17
2019-02-08T16:48:09.201Z,4.73
2019-02-08T16:50:38.958Z,5.53
2019-02-08T16:53:09.126Z,8.57
2019-02-08T16:55:38.800Z,8.10
2019-02-08T16:58:08.756Z,7.27
2019-02-08T17:00:38.461Z,7.03
2019-02-08T17:03:10.081Z,7.57
2019-02-08T17:05:39.699Z,7.47
2019-02-08T17:08:09.463Z,8.77
2019-02-08T17:10:39.064Z,10.07
2019-02-08T17:13:10.272Z,29.10
2019-02-08T17:15:39.992Z,16.43
2019-02-08T17:18:09.682Z,10.50
2019-02-08T17:20:41.687Z,11.07
2019-02-08T17:23:11.424Z,11.60
2019-02-08T17:25:41.031Z,10.57
2019-02-08T17:28:11.373Z,17.17
2019-02-08T17:30:41.044Z,11.63
2019-02-08T17:33:11.371Z,8.33
2019-02-08T17:35:40.990Z,7.60
2019-02-08T17:38:10.585Z,6.03
2019-02-08T17:40:41.972Z,5.90
2019-02-08T17:43:11.652Z,6.17
2019-02-08T17:45:41.240Z,6.27
2019-02-08T17:48:13.279Z,6.93
2019-02-08T17:50:42.864Z,7.60
2019-02-08T17:53:12.535Z,9.17
2019-02-08T17:55:42.203Z,8.30
2019-02-08T17:58:11.874Z,8.07
2019-02-08T18:00:50.697Z,6.40
2019-02-08T18:03:20.369Z,11.60
2019-02-08T18:05:49.967Z,20.43
2019-02-08T18:08:19.585Z,25.97
2019-02-08T18:10:49.180Z,19.23
2019-02-08T18:13:18.857Z,11.53
2019-02-08T18:15:48.785Z,5.17
2019-02-08T18:18:20.288Z,5.80
2019-02-08T18:20:52.500Z,6.97
2019-02-08T18:23:22.097Z,5.67
2019-02-08T18:25:51.700Z,5.70
2019-02-08T18:28:21.475Z,6.03
2019-02-08T18:30:51.024Z,5.53
2019-02-08T18:33:20.548Z,22.30
2019-02-08T18:35:50.066Z,7.67
2019-02-08T18:38:19.801Z,7.47
2019-02-08T18:40:49.442Z,7.63
2019-02-08T18:43:19.206Z,8.40
2019-02-08T18:45:48.998Z,8.53
2019-02-08T18:48:18.741Z,8.43
2019-02-08T18:50:50.485Z,8.33
2019-02-08T18:53:20.108Z,7.73
2019-02-08T18:55:49.689Z,8.60
2019-02-08T18:58:19.612Z,8.63
2019-02-08T19:00:50.465Z,7.00
2019-02-08T19:03:20.618Z,6.53
2019-02-08T19:05:50.339Z,7.00
2019-02-08T19:08:19.979Z,9.20
2019-02-08T19:10:49.607Z,8.83
2019-02-08T19:13:19.579Z,16.20
2019-02-08T19:15:49.396Z,31.50
2019-02-08T19:18:19.074Z,36.50
2019-02-08T19:20:48.712Z,34.67
2019-02-08T19:23:18.420Z,24.07
2019-02-08T19:25:48.019Z,17.00
2019-02-08T19:28:17.656Z,12.07
2019-02-08T19:30:47.343Z,8.37
2019-02-08T19:33:16.966Z,7.67
2019-02-08T19:35:46.627Z,7.03
2019-02-08T19:38:16.235Z,6.93
2019-02-08T19:40:46.372Z,7.30
2019-02-08T19:43:16.111Z,7.93
2019-02-08T19:45:45.697Z,8.33
2019-02-08T19:48:15.342Z,8.17
2019-02-08T19:50:45.769Z,9.83
2019-02-08T19:53:15.375Z,8.37
2019-02-08T19:55:45.122Z,25.47
2019-02-08T19:58:14.760Z,8.53
2019-02-08T20:00:44.470Z,9.33
2019-02-08T20:03:14.144Z,9.30
2019-02-08T20:05:43.720Z,9.53
2019-02-08T20:08:14.190Z,9.30
2019-02-08T20:10:45.616Z,8.57
2019-02-08T20:13:15.236Z,9.47
2019-02-08T20:15:44.913Z,11.13
2019-02-08T20:18:14.938Z,8.57
2019-02-08T20:20:44.634Z,8.13
2019-02-08T20:23:14.187Z,8.03
2019-02-08T20:25:43.785Z,7.67
2019-02-08T20:28:13.382Z,8.27
2019-02-08T20:30:43.064Z,8.40
2019-02-08T20:33:12.662Z,8.77
2019-02-08T20:35:42.354Z,10.60
2019-02-08T20:38:13.215Z,11.33
2019-02-08T20:40:45.296Z,10.07
2019-02-08T20:43:14.964Z,9.43
2019-02-08T20:45:44.559Z,9.47
2019-02-08T20:48:19.197Z,8.60
2019-02-08T20:50:48.871Z,8.80
2019-02-08T20:53:18.547Z,9.00
2019-02-08T20:55:48.297Z,8.63
2019-02-08T20:58:17.898Z,9.27
2019-02-08T21:00:49.375Z,9.43
2019-02-08T21:03:19.134Z,9.20
2019-02-08T21:05:49.134Z,9.07
2019-02-08T21:08:19.807Z,8.83
2019-02-08T21:10:49.920Z,9.27
2019-02-08T21:13:19.510Z,10.27
2019-02-08T21:15:49.121Z,10.33
2019-02-08T21:18:18.660Z,9.33
2019-02-08T21:20:48.569Z,10.23
2019-02-08T21:23:18.339Z,9.93
2019-02-08T21:25:52.152Z,9.40
2019-02-08T21:28:19.360Z,13.47
2019-02-08T21:30:48.885Z,12.53
2019-02-08T21:33:18.507Z,11.97
2019-02-08T21:35:49.521Z,12.37
2019-02-08T21:38:19.280Z,11.57
2019-02-08T21:40:48.980Z,12.07
2019-02-08T21:43:18.680Z,11.83
2019-02-08T21:45:48.395Z,17.97
2019-02-08T21:48:18.063Z,19.27
2019-02-08T21:50:47.692Z,12.13
2019-02-08T21:53:17.231Z,9.50
2019-02-08T21:55:46.950Z,9.40
2019-02-08T21:58:16.529Z,10.03
2019-02-08T22:00:46.536Z,10.17
2019-02-08T22:03:16.133Z,10.27
2019-02-08T22:05:54.628Z,10.07
2019-02-08T22:08:24.724Z,11.60
2019-02-08T22:10:54.392Z,10.17
2019-02-08T22:13:23.993Z,10.80
2019-02-08T22:15:53.573Z,10.60
2019-02-08T22:18:23.167Z,10.10
2019-02-08T22:20:52.789Z,10.20
2019-02-08T22:23:22.443Z,10.60
2019-02-08T22:25:52.110Z,11.03
2019-02-08T22:28:21.671Z,12.10
2019-02-08T22:30:51.277Z,11.93
2019-02-08T22:33:20.891Z,11.20
2019-02-08T22:35:50.406Z,11.77
2019-02-08T22:38:20.052Z,12.20
2019-02-08T22:40:49.693Z,12.70
2019-02-08T22:43:19.298Z,13.13
2019-02-08T22:45:48.920Z,13.20
2019-02-08T22:48:18.472Z,11.47
2019-02-08T22:50:47.995Z,12.87
2019-02-08T22:53:17.682Z,12.80
2019-02-08T22:55:47.218Z,11.73
2019-02-08T22:58:16.756Z,13.33
2019-02-08T23:01:13.616Z,13.43
2019-02-08T23:03:43.309Z,11.93
2019-02-08T23:06:12.965Z,11.77
2019-02-08T23:08:42.584Z,12.63
2019-02-08T23:11:12.159Z,11.87
2019-02-08T23:13:41.781Z,11.60
2019-02-08T23:16:11.450Z,11.00
2019-02-08T23:18:41.067Z,10.97
2019-02-08T23:21:10.911Z,12.10
2019-02-08T23:23:40.720Z,11.40
2019-02-08T23:26:10.368Z,11.63
2019-02-08T23:28:39.988Z,10.47
2019-02-08T23:31:09.673Z,11.07
2019-02-08T23:33:39.257Z,11.30
2019-02-08T23:36:08.866Z,14.60
2019-02-08T23:38:38.507Z,15.73
2019-02-08T23:41:08.516Z,18.23
2019-02-08T23:43:38.115Z,20.63
2019-02-08T23:46:07.716Z,19.43
2019-02-08T23:48:37.396Z,18.47
2019-02-08T23:51:07.043Z,18.27
2019-02-08T23:53:36.646Z,13.70
2019-02-08T23:56:06.433Z,11.80
2019-02-08T23:58:35.962Z,15.90
